createdAt,value
2019-05-30T00:00:17.976Z,69.6
2019-05-30T00:15:06.662Z,70
2019-05-30T00:30:04.646Z,69.7
2019-05-30T00:45:25.222Z,69.8
2019-05-30T01:00:05.134Z,69.7
2019-05-30T01:15:05.237Z,70
2019-05-30T01:30:05.636Z,69.8
2019-05-30T01:45:04.558Z,70.1
2019-05-30T02:00:21.739Z,70.3
2019-05-30T02:15:05.663Z,70.4
2019-05-30T02:30:10.884Z,70.9
2019-05-30T02:45:07.756Z,71.3
2019-05-30T03:00:10.870Z,71.4
2019-05-30T03:15:09.228Z,71.8
2019-05-30T03:30:25.135Z,71.7
2019-05-30T03:45:10.318Z,71.5
2019-05-30T04:00:06.789Z,71.7
2019-05-30T04:15:04.472Z,71.5
2019-05-30T04:30:04.707Z,71.5
2019-05-30T04:45:04.499Z,71.6
2019-05-30T05:00:04.301Z,71.7
2019-05-30T05:15:04.618Z,72.1
2019-05-30T05:30:04.600Z,72.2
2019-05-30T05:45:04.361Z,72.5
2019-05-30T06:00:04.161Z,72.9
2019-05-30T06:15:05.028Z,74
2019-05-30T06:30:04.735Z,72.9
2019-05-30T06:45:04.509Z,73.1
2019-05-30T07:00:04.299Z,73.4
2019-05-30T07:15:05.002Z,72.6
2019-05-30T07:30:04.601Z,74.4
2019-05-30T07:45:05.054Z,80.1
2019-05-30T08:00:04.829Z,72.7
2019-05-30T08:15:04.573Z,68.8
2019-05-30T08:30:04.595Z,66.8
2019-05-30T08:45:04.909Z,68.1
2019-05-30T09:00:04.236Z,69.7
2019-05-30T09:15:04.989Z,69.3
2019-05-30T09:30:04.916Z,69.1
2019-05-30T09:45:04.691Z,61.5
2019-05-30T10:00:04.449Z,59.9
2019-05-30T10:15:04.196Z,60.6
2019-05-30T10:30:04.116Z,59.8
2019-05-30T10:45:04.821Z,59.4
2019-05-30T11:00:04.568Z,58.9
2019-05-30T11:15:04.897Z,58.6
2019-05-30T11:30:04.437Z,58.4
2019-05-30T11:45:04.507Z,57.4
2019-05-30T12:00:04.306Z,56.6
2019-05-30T12:15:04.559Z,56.5
2019-05-30T12:30:04.070Z,55.1
2019-05-30T12:45:07.501Z,54.4
2019-05-30T13:00:18.595Z,53.3
2019-05-30T13:30:04.403Z,50.8
2019-05-30T13:45:04.309Z,49
2019-05-30T14:00:04.550Z,48.8
2019-05-30T14:15:11.860Z,47.1
2019-05-30T14:30:04.765Z,48
2019-05-30T14:45:06.476Z,47.6
2019-05-30T15:00:05.088Z,47.2
2019-05-30T15:15:09.700Z,47.1
2019-05-30T15:30:04.376Z,47.3
2019-05-30T15:45:04.706Z,45.9
2019-05-30T16:00:04.997Z,46.3
2019-05-30T16:15:04.338Z,46.6
2019-05-30T16:30:04.900Z,46.4
2019-05-30T16:45:04.910Z,45.8
2019-05-30T17:15:04.543Z,46.2
2019-05-30T17:30:05.032Z,46.7
2019-05-30T17:45:04.373Z,47.3
2019-05-30T18:00:04.653Z,47.8
2019-05-30T18:15:05.064Z,48.3
2019-05-30T18:30:04.597Z,49.1
2019-05-30T18:45:04.321Z,49.9
2019-05-30T19:00:05.692Z,49.9
2019-05-30T19:15:04.449Z,50.3
2019-05-30T19:30:04.638Z,50.7
2019-05-30T19:45:04.423Z,50.6
2019-05-30T20:00:04.149Z,50.7
2019-05-30T20:15:04.863Z,51
2019-05-30T20:30:04.807Z,52
2019-05-30T20:45:09.995Z,52.3
2019-05-30T21:00:04.410Z,52.6
2019-05-30T21:15:04.743Z,53.4
2019-05-30T21:30:04.415Z,54.3
2019-05-30T21:45:04.933Z,54
2019-05-30T22:00:04.689Z,54.4
2019-05-30T22:15:05.173Z,54.7
2019-05-30T22:30:04.209Z,55.2
2019-05-30T22:45:04.909Z,55.4
2019-05-30T23:00:04.639Z,56
2019-05-30T23:15:04.414Z,56.4
2019-05-30T23:30:04.442Z,57
2019-05-30T23:45:04.801Z,57.2
